VXP621 KHVN-KILM
Flight info
| Callsign | VXP621 |
|---|---|
| Flight time | 1h 18m |
| Altitude | 36000 |
| Route | BEADS EMJAY Q167 ZJAAY Q97 PAACK ISO/N0344F160 V70 ILM |
| Aircraft | B738/M-SDE2E3FGHIRWXY/LB1 |
Departure
| Time | 2026-04-21 14:10 |
|---|---|
| Airport | Tweed New Haven Airport (KHVN) |
Arrival
| Time | 2026-04-21 15:28 |
|---|---|
| Airport | Wilmington International Airport (KILM) |
| Time | Latitude | Longitude | Altitude | Speed | Heading |
|---|---|---|---|---|---|
| 2026-04-21 13:28 | 41.26887 | -72.89042 | 16 ft | 0 kts | 311° |
| 2026-04-21 13:58 | 41.26887 | -72.89041 | 16 ft | 1 kts | 311° |
| 2026-04-21 13:58 | 41.26871 | -72.89017 | 16 ft | 4 kts | 311° |
| 2026-04-21 13:58 | 41.26853 | -72.88990 | 19 ft | 4 kts | 308° |
| 2026-04-21 13:58 | 41.26837 | -72.88962 | 19 ft | 4 kts | 306° |
| 2026-04-21 13:59 | 41.26832 | -72.88953 | 19 ft | 0 kts | 306° |
| 2026-04-21 14:03 | 41.26833 | -72.88954 | 19 ft | 1 kts | 306° |
| 2026-04-21 14:03 | 41.26841 | -72.88976 | 17 ft | 5 kts | 281° |
| 2026-04-21 14:03 | 41.26817 | -72.89000 | 16 ft | 5 kts | 162° |
| 2026-04-21 14:03 | 41.26792 | -72.88967 | 16 ft | 5 kts | 133° |
| 2026-04-21 14:04 | 41.26762 | -72.88923 | 17 ft | 8 kts | 132° |
| 2026-04-21 14:04 | 41.26718 | -72.88859 | 15 ft | 11 kts | 132° |
| 2026-04-21 14:04 | 41.26658 | -72.88770 | 15 ft | 15 kts | 131° |
| 2026-04-21 14:04 | 41.26589 | -72.88668 | 16 ft | 14 kts | 131° |
| 2026-04-21 14:05 | 41.26524 | -72.88572 | 16 ft | 13 kts | 132° |
| 2026-04-21 14:05 | 41.26466 | -72.88486 | 16 ft | 11 kts | 132° |
| 2026-04-21 14:05 | 41.26438 | -72.88454 | 16 ft | 4 kts | 162° |
| 2026-04-21 14:05 | 41.26413 | -72.88468 | 16 ft | 4 kts | 215° |
| 2026-04-21 14:06 | 41.26384 | -72.88496 | 16 ft | 7 kts | 217° |
| 2026-04-21 14:06 | 41.26337 | -72.88544 | 16 ft | 10 kts | 217° |
| 2026-04-21 14:06 | 41.26269 | -72.88605 | 16 ft | 12 kts | 202° |
| 2026-04-21 14:06 | 41.26185 | -72.88628 | 16 ft | 12 kts | 190° |
| 2026-04-21 14:07 | 41.26103 | -72.88647 | 16 ft | 12 kts | 190° |
| 2026-04-21 14:07 | 41.26023 | -72.88667 | 16 ft | 12 kts | 190° |
| 2026-04-21 14:07 | 41.25945 | -72.88685 | 18 ft | 11 kts | 190° |
| 2026-04-21 14:07 | 41.25880 | -72.88700 | 16 ft | 9 kts | 190° |
| 2026-04-21 14:08 | 41.25819 | -72.88711 | 16 ft | 9 kts | 184° |
| 2026-04-21 14:08 | 41.25757 | -72.88715 | 16 ft | 9 kts | 182° |
| 2026-04-21 14:08 | 41.25694 | -72.88719 | 16 ft | 9 kts | 182° |
| 2026-04-21 14:08 | 41.25630 | -72.88728 | 15 ft | 9 kts | 204° |
| 2026-04-21 14:09 | 41.25611 | -72.88801 | 16 ft | 8 kts | 279° |
| 2026-04-21 14:09 | 41.25647 | -72.88824 | 16 ft | 0 kts | 4° |
| 2026-04-21 14:09 | 41.25696 | -72.88820 | 17 ft | 35 kts | 3° |
| 2026-04-21 14:10 | 41.26240 | -72.88783 | 19 ft | 120 kts | 3° |
| 2026-04-21 14:10 | 41.27300 | -72.88711 | 234 ft | 169 kts | 4° |
| 2026-04-21 14:10 | 41.28087 | -72.88666 | 854 ft | 174 kts | 4° |
| 2026-04-21 14:10 | 41.29740 | -72.88541 | 2449 ft | 174 kts | 7° |
| 2026-04-21 14:11 | 41.30535 | -72.88452 | 2820 ft | 187 kts | 7° |
| 2026-04-21 14:11 | 41.32342 | -72.87924 | 3221 ft | 217 kts | 35° |
| 2026-04-21 14:11 | 41.33237 | -72.86297 | 3580 ft | 227 kts | 76° |
| 2026-04-21 14:11 | 41.33275 | -72.84978 | 3877 ft | 230 kts | 101° |
| 2026-04-21 14:12 | 41.32535 | -72.83101 | 4376 ft | 235 kts | 135° |
| 2026-04-21 14:12 | 41.31136 | -72.81949 | 4906 ft | 242 kts | 157° |
| 2026-04-21 14:12 | 41.29501 | -72.81119 | 5218 ft | 259 kts | 161° |
| 2026-04-21 14:12 | 41.27756 | -72.80326 | 5871 ft | 269 kts | 162° |
| 2026-04-21 14:13 | 41.25971 | -72.79519 | 6709 ft | 273 kts | 162° |
| 2026-04-21 14:13 | 41.24176 | -72.78694 | 7409 ft | 279 kts | 162° |
| 2026-04-21 14:13 | 41.22313 | -72.77824 | 8087 ft | 286 kts | 162° |
| 2026-04-21 14:13 | 41.20406 | -72.76922 | 8773 ft | 293 kts | 161° |
| 2026-04-21 14:14 | 41.18480 | -72.76002 | 9445 ft | 299 kts | 161° |
| 2026-04-21 14:14 | 41.16502 | -72.75051 | 10143 ft | 306 kts | 161° |
| 2026-04-21 14:14 | 41.14442 | -72.74058 | 10454 ft | 326 kts | 161° |
| 2026-04-21 14:14 | 41.12226 | -72.72989 | 10647 ft | 348 kts | 161° |
| 2026-04-21 14:15 | 41.09925 | -72.71876 | 11033 ft | 361 kts | 161° |
| 2026-04-21 14:15 | 41.07546 | -72.70722 | 11674 ft | 366 kts | 161° |
| 2026-04-21 14:15 | 41.05140 | -72.69556 | 12397 ft | 369 kts | 161° |
| 2026-04-21 14:15 | 41.02733 | -72.68389 | 13085 ft | 374 kts | 161° |
| 2026-04-21 14:16 | 41.00260 | -72.67192 | 13770 ft | 380 kts | 161° |
| 2026-04-21 14:16 | 40.97749 | -72.65978 | 14452 ft | 385 kts | 161° |
| 2026-04-21 14:16 | 40.95205 | -72.64749 | 15094 ft | 391 kts | 161° |
| 2026-04-21 14:16 | 40.92672 | -72.63526 | 15739 ft | 396 kts | 161° |
| 2026-04-21 14:17 | 40.90060 | -72.62266 | 16395 ft | 401 kts | 161° |
| 2026-04-21 14:17 | 40.87421 | -72.60994 | 17026 ft | 407 kts | 161° |
| 2026-04-21 14:17 | 40.84730 | -72.59697 | 17675 ft | 412 kts | 161° |
| 2026-04-21 14:17 | 40.82017 | -72.58391 | 18308 ft | 417 kts | 161° |
| 2026-04-21 14:18 | 40.79274 | -72.57073 | 18911 ft | 422 kts | 161° |
| 2026-04-21 14:18 | 40.76462 | -72.56078 | 19408 ft | 424 kts | 179° |
| 2026-04-21 14:18 | 40.73558 | -72.56406 | 19976 ft | 416 kts | 199° |
| 2026-04-21 14:18 | 40.70846 | -72.57695 | 20576 ft | 410 kts | 213° |
| 2026-04-21 14:19 | 40.68493 | -72.59762 | 21105 ft | 403 kts | 226° |
| 2026-04-21 14:19 | 40.66342 | -72.62153 | 21668 ft | 405 kts | 229° |
| 2026-04-21 14:19 | 40.64236 | -72.64588 | 22198 ft | 409 kts | 229° |
| 2026-04-21 14:19 | 40.62092 | -72.67085 | 22732 ft | 413 kts | 229° |
| 2026-04-21 14:20 | 40.59930 | -72.69588 | 23260 ft | 417 kts | 229° |
| 2026-04-21 14:20 | 40.57725 | -72.72116 | 23780 ft | 421 kts | 229° |
| 2026-04-21 14:20 | 40.55520 | -72.74624 | 24229 ft | 424 kts | 229° |
| 2026-04-21 14:20 | 40.53262 | -72.77176 | 24664 ft | 428 kts | 229° |
| 2026-04-21 14:21 | 40.50980 | -72.79744 | 25106 ft | 430 kts | 229° |
| 2026-04-21 14:21 | 40.48722 | -72.82281 | 25519 ft | 433 kts | 229° |
| 2026-04-21 14:21 | 40.46426 | -72.84856 | 25927 ft | 436 kts | 229° |
| 2026-04-21 14:21 | 40.44114 | -72.87448 | 26332 ft | 439 kts | 229° |
| 2026-04-21 14:22 | 40.41775 | -72.90067 | 26740 ft | 442 kts | 229° |
| 2026-04-21 14:22 | 40.39429 | -72.92693 | 27124 ft | 444 kts | 229° |
| 2026-04-21 14:22 | 40.37069 | -72.95332 | 27507 ft | 447 kts | 229° |
| 2026-04-21 14:22 | 40.34688 | -72.97992 | 27894 ft | 450 kts | 229° |
| 2026-04-21 14:23 | 40.32298 | -73.00660 | 28267 ft | 452 kts | 229° |
| 2026-04-21 14:23 | 40.29923 | -73.03308 | 28621 ft | 455 kts | 229° |
| 2026-04-21 14:23 | 40.27508 | -73.05999 | 28976 ft | 457 kts | 229° |
| 2026-04-21 14:23 | 40.25074 | -73.08707 | 29330 ft | 460 kts | 229° |
| 2026-04-21 14:24 | 40.22616 | -73.11441 | 29664 ft | 462 kts | 229° |
| 2026-04-21 14:24 | 40.20157 | -73.14172 | 30006 ft | 464 kts | 229° |
| 2026-04-21 14:24 | 40.17696 | -73.16902 | 30324 ft | 467 kts | 229° |
| 2026-04-21 14:24 | 40.15210 | -73.19659 | 30621 ft | 469 kts | 229° |
| 2026-04-21 14:25 | 40.12717 | -73.22420 | 30896 ft | 470 kts | 229° |
| 2026-04-21 14:25 | 40.10215 | -73.25186 | 31249 ft | 470 kts | 229° |
| 2026-04-21 14:25 | 40.07728 | -73.27942 | 31677 ft | 467 kts | 229° |
| 2026-04-21 14:25 | 40.05298 | -73.30658 | 32116 ft | 464 kts | 229° |
| 2026-04-21 14:26 | 40.02846 | -73.33409 | 32496 ft | 462 kts | 229° |
| 2026-04-21 14:26 | 40.00408 | -73.36149 | 32851 ft | 461 kts | 229° |
| 2026-04-21 14:26 | 39.97976 | -73.38878 | 33212 ft | 460 kts | 229° |
| 2026-04-21 14:26 | 39.95578 | -73.41562 | 33588 ft | 459 kts | 229° |
| 2026-04-21 14:27 | 39.93154 | -73.44271 | 33973 ft | 457 kts | 229° |
| 2026-04-21 14:27 | 39.90729 | -73.46978 | 34338 ft | 456 kts | 229° |
| 2026-04-21 14:27 | 39.88341 | -73.49642 | 34634 ft | 455 kts | 229° |
| 2026-04-21 14:27 | 39.85938 | -73.52319 | 34887 ft | 455 kts | 229° |
| 2026-04-21 14:28 | 39.83530 | -73.54999 | 35129 ft | 454 kts | 229° |
| 2026-04-21 14:28 | 39.81144 | -73.57649 | 35387 ft | 454 kts | 229° |
| 2026-04-21 14:28 | 39.78744 | -73.60312 | 35647 ft | 453 kts | 229° |
| 2026-04-21 14:28 | 39.76342 | -73.62976 | 35888 ft | 453 kts | 228° |
| 2026-04-21 14:29 | 39.73947 | -73.65631 | 36130 ft | 453 kts | 228° |
| 2026-04-21 14:29 | 39.71552 | -73.68284 | 36376 ft | 452 kts | 228° |
| 2026-04-21 14:29 | 39.69148 | -73.70946 | 36436 ft | 455 kts | 228° |
| 2026-04-21 14:30 | 39.64330 | -73.76274 | 36429 ft | 457 kts | 228° |
| 2026-04-21 14:30 | 39.59510 | -73.81584 | 36439 ft | 450 kts | 228° |
| 2026-04-21 14:31 | 39.54764 | -73.86809 | 36446 ft | 448 kts | 228° |
| 2026-04-21 14:31 | 39.50023 | -73.92022 | 36445 ft | 447 kts | 228° |
| 2026-04-21 14:32 | 39.45285 | -73.97224 | 36452 ft | 447 kts | 228° |
| 2026-04-21 14:32 | 39.40516 | -74.02447 | 36454 ft | 447 kts | 228° |
| 2026-04-21 14:33 | 39.35794 | -74.07614 | 36454 ft | 448 kts | 228° |
| 2026-04-21 14:33 | 39.31020 | -74.12835 | 36453 ft | 449 kts | 228° |
| 2026-04-21 14:34 | 39.26237 | -74.18058 | 36452 ft | 450 kts | 227° |
| 2026-04-21 14:34 | 39.21475 | -74.23247 | 36449 ft | 451 kts | 227° |
| 2026-04-21 14:35 | 39.16676 | -74.28467 | 36450 ft | 451 kts | 227° |
| 2026-04-21 14:35 | 39.11854 | -74.33702 | 36454 ft | 452 kts | 227° |
| 2026-04-21 14:36 | 39.07067 | -74.38890 | 36458 ft | 452 kts | 227° |
| 2026-04-21 14:36 | 39.02249 | -74.44102 | 36458 ft | 452 kts | 227° |
| 2026-04-21 14:37 | 38.97460 | -74.49275 | 36461 ft | 452 kts | 227° |
| 2026-04-21 14:37 | 38.92664 | -74.54481 | 36460 ft | 450 kts | 229° |
| 2026-04-21 14:38 | 38.88061 | -74.59878 | 36460 ft | 447 kts | 230° |
| 2026-04-21 14:38 | 38.83507 | -74.65282 | 36460 ft | 447 kts | 230° |
| 2026-04-21 14:39 | 38.78907 | -74.70666 | 36459 ft | 446 kts | 230° |
| 2026-04-21 14:39 | 38.74292 | -74.76002 | 36459 ft | 447 kts | 228° |
| 2026-04-21 14:40 | 38.69469 | -74.81076 | 36461 ft | 449 kts | 226° |
| 2026-04-21 14:40 | 38.64606 | -74.86057 | 36462 ft | 449 kts | 226° |
| 2026-04-21 14:41 | 38.59754 | -74.91082 | 36458 ft | 448 kts | 226° |
| 2026-04-21 14:41 | 38.54938 | -74.96088 | 36458 ft | 448 kts | 226° |
| 2026-04-21 14:42 | 38.50157 | -75.01184 | 36456 ft | 446 kts | 229° |
| 2026-04-21 14:42 | 38.45466 | -75.06373 | 36457 ft | 449 kts | 226° |
| 2026-04-21 14:43 | 38.40460 | -75.11188 | 36459 ft | 451 kts | 223° |
| 2026-04-21 14:43 | 38.35394 | -75.15897 | 36453 ft | 452 kts | 223° |
| 2026-04-21 14:44 | 38.30337 | -75.20650 | 36453 ft | 451 kts | 224° |
| 2026-04-21 14:44 | 38.25297 | -75.25421 | 36454 ft | 451 kts | 224° |
| 2026-04-21 14:45 | 38.20279 | -75.30173 | 36450 ft | 451 kts | 224° |
| 2026-04-21 14:45 | 38.15219 | -75.34953 | 36452 ft | 451 kts | 224° |
| 2026-04-21 14:46 | 38.10197 | -75.39689 | 36459 ft | 451 kts | 224° |
| 2026-04-21 14:46 | 38.05153 | -75.44436 | 36460 ft | 451 kts | 224° |
| 2026-04-21 14:47 | 37.99978 | -75.49014 | 36457 ft | 454 kts | 221° |
| 2026-04-21 14:47 | 37.94737 | -75.53489 | 36453 ft | 454 kts | 221° |
| 2026-04-21 14:48 | 37.89559 | -75.57957 | 36455 ft | 453 kts | 221° |
| 2026-04-21 14:48 | 37.84333 | -75.62479 | 36452 ft | 453 kts | 221° |
| 2026-04-21 14:49 | 37.78982 | -75.66671 | 36457 ft | 456 kts | 217° |
| 2026-04-21 14:49 | 37.73481 | -75.70735 | 36456 ft | 456 kts | 217° |
| 2026-04-21 14:50 | 37.68930 | -75.74126 | 36459 ft | 456 kts | 218° |
| 2026-04-21 14:50 | 37.62589 | -75.78894 | 36455 ft | 456 kts | 218° |
| 2026-04-21 14:51 | 37.57143 | -75.82991 | 36452 ft | 456 kts | 218° |
| 2026-04-21 14:51 | 37.51740 | -75.87162 | 36453 ft | 452 kts | 221° |
| 2026-04-21 14:52 | 37.46603 | -75.91690 | 36451 ft | 450 kts | 223° |
| 2026-04-21 14:52 | 37.41516 | -75.96293 | 36455 ft | 450 kts | 223° |
| 2026-04-21 14:53 | 37.36443 | -76.00837 | 36453 ft | 450 kts | 223° |
| 2026-04-21 14:53 | 37.31313 | -76.05387 | 36453 ft | 450 kts | 222° |
| 2026-04-21 14:54 | 37.26183 | -76.09915 | 36453 ft | 450 kts | 222° |
| 2026-04-21 14:54 | 37.21079 | -76.14413 | 36460 ft | 450 kts | 222° |
| 2026-04-21 14:55 | 37.15929 | -76.18944 | 36456 ft | 450 kts | 222° |
| 2026-04-21 14:55 | 37.10804 | -76.23447 | 36447 ft | 450 kts | 222° |
| 2026-04-21 14:56 | 37.05662 | -76.27957 | 36450 ft | 450 kts | 222° |
| 2026-04-21 14:56 | 37.00539 | -76.32442 | 36492 ft | 451 kts | 222° |
| 2026-04-21 14:57 | 36.95393 | -76.36941 | 36491 ft | 451 kts | 222° |
| 2026-04-21 14:57 | 36.90276 | -76.41406 | 36491 ft | 451 kts | 222° |
| 2026-04-21 14:58 | 36.85124 | -76.45895 | 36467 ft | 451 kts | 222° |
| 2026-04-21 14:58 | 36.79977 | -76.50372 | 36464 ft | 451 kts | 222° |
| 2026-04-21 14:59 | 36.74827 | -76.54844 | 36466 ft | 451 kts | 222° |
| 2026-04-21 14:59 | 36.69671 | -76.59314 | 36476 ft | 451 kts | 222° |
| 2026-04-21 15:00 | 36.64550 | -76.63746 | 36479 ft | 451 kts | 222° |
| 2026-04-21 15:00 | 36.59407 | -76.68190 | 36470 ft | 451 kts | 222° |
| 2026-04-21 15:01 | 36.54257 | -76.72633 | 36465 ft | 451 kts | 221° |
| 2026-04-21 15:01 | 36.49102 | -76.77072 | 36457 ft | 451 kts | 221° |
| 2026-04-21 15:02 | 36.43948 | -76.81505 | 36456 ft | 450 kts | 221° |
| 2026-04-21 15:02 | 36.39658 | -76.85190 | 36453 ft | 450 kts | 221° |
| 2026-04-21 15:03 | 36.34501 | -76.89632 | 36456 ft | 450 kts | 222° |
| 2026-04-21 15:03 | 36.29414 | -76.94083 | 36426 ft | 450 kts | 222° |
| 2026-04-21 15:03 | 36.26841 | -76.96341 | 35927 ft | 455 kts | 222° |
| 2026-04-21 15:04 | 36.24273 | -76.98584 | 35546 ft | 449 kts | 222° |
| 2026-04-21 15:04 | 36.21737 | -77.00793 | 35105 ft | 446 kts | 222° |
| 2026-04-21 15:04 | 36.19214 | -77.02989 | 34681 ft | 443 kts | 222° |
| 2026-04-21 15:04 | 36.16684 | -77.05190 | 34224 ft | 439 kts | 222° |
| 2026-04-21 15:05 | 36.14197 | -77.07352 | 33743 ft | 436 kts | 222° |
| 2026-04-21 15:05 | 36.09267 | -77.11634 | 32881 ft | 429 kts | 223° |
| 2026-04-21 15:05 | 36.06827 | -77.13751 | 32473 ft | 425 kts | 223° |
| 2026-04-21 15:06 | 36.04444 | -77.15818 | 32079 ft | 422 kts | 223° |
| 2026-04-21 15:06 | 36.02046 | -77.17896 | 31680 ft | 418 kts | 223° |
| 2026-04-21 15:06 | 35.99666 | -77.19959 | 31283 ft | 416 kts | 223° |
| 2026-04-21 15:06 | 35.97307 | -77.22001 | 30892 ft | 413 kts | 223° |
| 2026-04-21 15:07 | 35.94965 | -77.24025 | 30500 ft | 410 kts | 223° |
| 2026-04-21 15:07 | 35.92588 | -77.25988 | 30035 ft | 412 kts | 217° |
| 2026-04-21 15:07 | 35.90004 | -77.27554 | 29638 ft | 413 kts | 211° |
| 2026-04-21 15:07 | 35.87368 | -77.28967 | 29208 ft | 411 kts | 210° |
| 2026-04-21 15:08 | 35.84746 | -77.30337 | 28820 ft | 407 kts | 210° |
| 2026-04-21 15:08 | 35.82145 | -77.31698 | 28400 ft | 404 kts | 210° |
| 2026-04-21 15:08 | 35.79604 | -77.33039 | 28015 ft | 401 kts | 210° |
| 2026-04-21 15:08 | 35.77045 | -77.34401 | 27610 ft | 398 kts | 210° |
| 2026-04-21 15:09 | 35.74514 | -77.35756 | 27227 ft | 395 kts | 211° |
| 2026-04-21 15:09 | 35.72002 | -77.37105 | 26844 ft | 392 kts | 211° |
| 2026-04-21 15:09 | 35.69512 | -77.38444 | 26463 ft | 390 kts | 211° |
| 2026-04-21 15:09 | 35.67018 | -77.39785 | 26082 ft | 388 kts | 210° |
| 2026-04-21 15:10 | 35.64581 | -77.41095 | 25709 ft | 386 kts | 210° |
| 2026-04-21 15:10 | 35.62129 | -77.42412 | 25335 ft | 384 kts | 210° |
| 2026-04-21 15:10 | 35.59673 | -77.43729 | 24960 ft | 382 kts | 210° |
| 2026-04-21 15:10 | 35.57239 | -77.45034 | 24588 ft | 381 kts | 210° |
| 2026-04-21 15:11 | 35.54816 | -77.46333 | 24216 ft | 380 kts | 210° |
| 2026-04-21 15:11 | 35.52393 | -77.47630 | 23780 ft | 379 kts | 210° |
| 2026-04-21 15:11 | 35.49978 | -77.48922 | 23365 ft | 377 kts | 210° |
| 2026-04-21 15:11 | 35.47575 | -77.50207 | 22967 ft | 375 kts | 210° |
| 2026-04-21 15:12 | 35.45192 | -77.51480 | 22600 ft | 372 kts | 210° |
| 2026-04-21 15:12 | 35.42855 | -77.52728 | 22237 ft | 370 kts | 210° |
| 2026-04-21 15:12 | 35.40485 | -77.53993 | 21872 ft | 371 kts | 210° |
| 2026-04-21 15:12 | 35.38086 | -77.55275 | 21297 ft | 381 kts | 209° |
| 2026-04-21 15:13 | 35.35532 | -77.56406 | 20585 ft | 398 kts | 200° |
| 2026-04-21 15:13 | 35.32795 | -77.57299 | 20122 ft | 427 kts | 199° |
| 2026-04-21 15:13 | 35.29814 | -77.58217 | 19607 ft | 457 kts | 198° |
| 2026-04-21 15:13 | 35.26676 | -77.59167 | 19075 ft | 464 kts | 198° |
| 2026-04-21 15:14 | 35.23536 | -77.60115 | 18523 ft | 463 kts | 198° |
| 2026-04-21 15:14 | 35.20420 | -77.61068 | 17927 ft | 459 kts | 198° |
| 2026-04-21 15:14 | 35.17331 | -77.62026 | 17345 ft | 456 kts | 198° |
| 2026-04-21 15:14 | 35.14263 | -77.62986 | 16766 ft | 453 kts | 198° |
| 2026-04-21 15:15 | 35.11261 | -77.63929 | 16211 ft | 450 kts | 198° |
| 2026-04-21 15:15 | 35.08241 | -77.64880 | 15661 ft | 446 kts | 198° |
| 2026-04-21 15:15 | 35.05338 | -77.66132 | 15115 ft | 436 kts | 207° |
| 2026-04-21 15:15 | 35.02600 | -77.67667 | 14606 ft | 427 kts | 209° |
| 2026-04-21 15:16 | 34.99967 | -77.69222 | 14313 ft | 414 kts | 210° |
| 2026-04-21 15:16 | 34.97446 | -77.70723 | 13979 ft | 392 kts | 210° |
| 2026-04-21 15:16 | 34.95077 | -77.72129 | 13610 ft | 375 kts | 210° |
| 2026-04-21 15:16 | 34.92779 | -77.73490 | 13232 ft | 360 kts | 210° |
| 2026-04-21 15:17 | 34.90572 | -77.74792 | 12861 ft | 347 kts | 210° |
| 2026-04-21 15:17 | 34.88435 | -77.76049 | 12494 ft | 336 kts | 210° |
| 2026-04-21 15:17 | 34.86357 | -77.77271 | 12129 ft | 326 kts | 210° |
| 2026-04-21 15:17 | 34.84339 | -77.78453 | 11766 ft | 317 kts | 210° |
| 2026-04-21 15:18 | 34.82373 | -77.79603 | 11424 ft | 310 kts | 210° |
| 2026-04-21 15:18 | 34.80442 | -77.80734 | 11072 ft | 306 kts | 210° |
| 2026-04-21 15:18 | 34.78552 | -77.81842 | 10786 ft | 301 kts | 210° |
| 2026-04-21 15:18 | 34.76679 | -77.82942 | 10351 ft | 297 kts | 210° |
| 2026-04-21 15:19 | 34.74836 | -77.84025 | 9749 ft | 295 kts | 210° |
| 2026-04-21 15:19 | 34.72997 | -77.85110 | 9118 ft | 292 kts | 210° |
| 2026-04-21 15:19 | 34.71177 | -77.86189 | 8496 ft | 290 kts | 210° |
| 2026-04-21 15:19 | 34.69374 | -77.87265 | 7905 ft | 287 kts | 210° |
| 2026-04-21 15:20 | 34.67591 | -77.88334 | 7344 ft | 282 kts | 210° |
| 2026-04-21 15:20 | 34.65840 | -77.89389 | 6786 ft | 279 kts | 210° |
| 2026-04-21 15:20 | 34.64133 | -77.90425 | 6248 ft | 276 kts | 209° |
| 2026-04-21 15:20 | 34.62419 | -77.91481 | 5727 ft | 273 kts | 210° |
| 2026-04-21 15:21 | 34.60755 | -77.92527 | 5256 ft | 270 kts | 210° |
| 2026-04-21 15:21 | 34.59102 | -77.93584 | 4747 ft | 265 kts | 210° |
| 2026-04-21 15:21 | 34.57402 | -77.94445 | 4393 ft | 265 kts | 200° |
| 2026-04-21 15:21 | 34.55656 | -77.95161 | 3959 ft | 263 kts | 200° |
| 2026-04-21 15:22 | 34.53952 | -77.95870 | 3575 ft | 260 kts | 201° |
| 2026-04-21 15:22 | 34.52243 | -77.96592 | 3243 ft | 258 kts | 200° |
| 2026-04-21 15:22 | 34.50564 | -77.97323 | 3140 ft | 256 kts | 200° |
| 2026-04-21 15:22 | 34.48882 | -77.98071 | 3118 ft | 257 kts | 200° |
| 2026-04-21 15:23 | 34.47220 | -77.98815 | 3144 ft | 259 kts | 201° |
| 2026-04-21 15:23 | 34.45511 | -77.99580 | 3105 ft | 261 kts | 200° |
| 2026-04-21 15:23 | 34.43805 | -78.00352 | 3122 ft | 260 kts | 201° |
| 2026-04-21 15:23 | 34.42105 | -78.01121 | 3119 ft | 261 kts | 200° |
| 2026-04-21 15:24 | 34.40430 | -78.01905 | 3102 ft | 263 kts | 201° |
| 2026-04-21 15:24 | 34.38713 | -78.02682 | 3098 ft | 261 kts | 197° |
| 2026-04-21 15:24 | 34.36917 | -78.02894 | 3196 ft | 262 kts | 174° |
| 2026-04-21 15:24 | 34.35162 | -78.02275 | 2902 ft | 263 kts | 153° |
| 2026-04-21 15:25 | 34.33597 | -78.01218 | 2974 ft | 252 kts | 147° |
| 2026-04-21 15:25 | 34.32126 | -78.00156 | 2886 ft | 248 kts | 146° |
| 2026-04-21 15:25 | 34.30657 | -77.99072 | 2558 ft | 245 kts | 146° |
| 2026-04-21 15:25 | 34.29191 | -77.98088 | 2560 ft | 236 kts | 154° |
| 2026-04-21 15:26 | 34.27681 | -77.97385 | 2452 ft | 228 kts | 160° |
| 2026-04-21 15:26 | 34.26148 | -77.97008 | 2198 ft | 220 kts | 171° |
| 2026-04-21 15:26 | 34.24653 | -77.96981 | 2106 ft | 208 kts | 178° |
| 2026-04-21 15:26 | 34.23318 | -77.96639 | 1922 ft | 188 kts | 139° |
| 2026-04-21 15:27 | 34.22739 | -77.95388 | 1669 ft | 171 kts | 88° |
| 2026-04-21 15:27 | 34.23170 | -77.94132 | 1329 ft | 168 kts | 44° |
| 2026-04-21 15:27 | 34.24176 | -77.93472 | 1100 ft | 157 kts | 30° |
| 2026-04-21 15:27 | 34.24999 | -77.92632 | 534 ft | 156 kts | 51° |
| 2026-04-21 15:28 | 34.25686 | -77.91688 | 248 ft | 144 kts | 49° |
| 2026-04-21 15:28 | 34.26317 | -77.90857 | 40 ft | 122 kts | 50° |
| 2026-04-21 15:28 | 34.26788 | -77.90217 | 27 ft | 73 kts | 48° |
| 2026-04-21 15:28 | 34.27042 | -77.89875 | 30 ft | 48 kts | 48° |
| 2026-04-21 15:29 | 34.27216 | -77.89641 | 31 ft | 19 kts | 47° |
| 2026-04-21 15:29 | 34.27280 | -77.89588 | 30 ft | 10 kts | 4° |
| 2026-04-21 15:29 | 34.27334 | -77.89638 | 29 ft | 10 kts | 295° |
| 2026-04-21 15:29 | 34.27331 | -77.89717 | 30 ft | 10 kts | 242° |
| 2026-04-21 15:30 | 34.27282 | -77.89794 | 31 ft | 13 kts | 231° |
| 2026-04-21 15:30 | 34.27213 | -77.89897 | 29 ft | 18 kts | 229° |
| 2026-04-21 15:30 | 34.27120 | -77.90025 | 30 ft | 22 kts | 229° |
| 2026-04-21 15:30 | 34.27013 | -77.90182 | 27 ft | 26 kts | 232° |
| 2026-04-21 15:31 | 34.26898 | -77.90359 | 28 ft | 27 kts | 232° |
| 2026-04-21 15:31 | 34.26781 | -77.90532 | 31 ft | 26 kts | 230° |
| 2026-04-21 15:31 | 34.26668 | -77.90688 | 32 ft | 24 kts | 227° |
| 2026-04-21 15:31 | 34.26591 | -77.90798 | 33 ft | 3 kts | 244° |
| 2026-04-21 15:32 | 34.26597 | -77.90817 | 34 ft | 3 kts | 322° |
| 2026-04-21 15:32 | 34.26613 | -77.90832 | 35 ft | 4 kts | 319° |
| 2026-04-21 15:32 | 34.26625 | -77.90845 | 35 ft | 0 kts | 315° |